Aérodrome :
LOGIN :

S'inscrire | Disclaimer

   EN    FR    IT 

 










Légende :    VFR   VFR Marginal   IFR   IFR Intensif   IFR Très Intensif
Visi : 
Plafond : 
>= 8 km
>= 3000ft
5 à 8 km
1000 à 3000 ft
1500m à 5 km
500 à 1000 ft
800 à 1500m
200 à 500 ft
< 800m
< 200 ft
Symboles :   Orages  Brouillard  Fortes neiges  Fortes précipitations  Vent > 20 kt
SIGMETs :   Divers  Orages  Givrage  Turbulence  Onde Orograph.  Cendres Volcan.






- Altitude de l'aérodrome : 675 ft
- Code IATA : RZE


EPRZ - Rzeszow-Jasionka

DERNIER METAR :
  • 302000Z 28009KT CAVOK M02/M08 Q1022

METARs EXPIRÉS :
  • 301930Z 28008KT CAVOK M01/M08 Q1022
  • 301900Z 30009KT CAVOK M01/M09 Q1022
  • 301830Z 29008KT CAVOK M00/M10 Q1021
  • 301800Z 30009KT CAVOK M00/M10 Q1021

TAF TAF EPRZ
Valide du 30 à 18h jusqu'au 31 à 18h UTC


301730Z 3018/3118 32010KT CAVOK
BECMG 3018/3021 VRB02KT
PROB40
TEMPO 3115/3118 SHSNRA BKN030CB



MET'MAP, la Météo Aéronautique d'un coup d'oeil ! - Copyright ORBIFLY Décembre 2007 - Disclaimer

ORBIFLY MET'MAP TEAM :

Programmation & Développement : Alexandra Zaïnal
Sur une idée originale de : Baudouin d'Aumeries
Assistance à la programmation : Marc-Olivier Méhu
Soutien technique & logistique : Manuel Goepfert

Contact : metmap@orbifly.com




SOURCES & CREDITS :

   NOAA